sensor_id;sensor_type;location;lat;lon;timestamp;P1;durP1;ratioP1;P2;durP2;ratioP2
74124;SDS011;62475;52.192;5.396;2023-08-30T00:01:09;7.72;;;4.28;;
74124;SDS011;62475;52.192;5.396;2023-08-30T00:03:34;5.55;;;4.22;;
74124;SDS011;62475;52.192;5.396;2023-08-30T00:06:03;5.65;;;3.97;;
74124;SDS011;62475;52.192;5.396;2023-08-30T00:08:29;7.50;;;4.10;;
74124;SDS011;62475;52.192;5.396;2023-08-30T00:10:54;8.75;;;4.45;;
74124;SDS011;62475;52.192;5.396;2023-08-30T00:13:21;8.30;;;4.32;;
74124;SDS011;62475;52.192;5.396;2023-08-30T00:15:46;6.30;;;4.03;;
74124;SDS011;62475;52.192;5.396;2023-08-30T00:18:11;6.80;;;4.10;;
74124;SDS011;62475;52.192;5.396;2023-08-30T00:20:37;7.47;;;3.87;;
74124;SDS011;62475;52.192;5.396;2023-08-30T00:23:03;6.43;;;4.40;;
74124;SDS011;62475;52.192;5.396;2023-08-30T00:25:29;7.93;;;4.75;;
74124;SDS011;62475;52.192;5.396;2023-08-30T00:27:55;7.20;;;4.37;;
74124;SDS011;62475;52.192;5.396;2023-08-30T00:30:20;5.80;;;4.23;;
74124;SDS011;62475;52.192;5.396;2023-08-30T00:32:45;7.35;;;4.53;;
74124;SDS011;62475;52.192;5.396;2023-08-30T00:35:11;10.07;;;5.40;;
74124;SDS011;62475;52.192;5.396;2023-08-30T00:37:37;8.35;;;5.15;;
74124;SDS011;62475;52.192;5.396;2023-08-30T00:40:02;7.97;;;5.03;;
74124;SDS011;62475;52.192;5.396;2023-08-30T00:42:28;9.02;;;4.93;;
74124;SDS011;62475;52.192;5.396;2023-08-30T00:44:53;7.87;;;5.33;;
74124;SDS011;62475;52.192;5.396;2023-08-30T00:47:18;7.97;;;4.32;;
74124;SDS011;62475;52.192;5.396;2023-08-30T00:49:43;8.20;;;5.03;;
74124;SDS011;62475;52.192;5.396;2023-08-30T00:52:09;8.50;;;4.93;;
74124;SDS011;62475;52.192;5.396;2023-08-30T00:54:35;8.55;;;4.90;;
74124;SDS011;62475;52.192;5.396;2023-08-30T00:57:00;8.15;;;5.35;;
74124;SDS011;62475;52.192;5.396;2023-08-30T00:59:26;7.95;;;5.25;;
74124;SDS011;62475;52.192;5.396;2023-08-30T01:01:52;9.65;;;5.20;;
74124;SDS011;62475;52.192;5.396;2023-08-30T01:04:18;6.93;;;4.65;;
74124;SDS011;62475;52.192;5.396;2023-08-30T01:06:44;7.55;;;4.93;;
74124;SDS011;62475;52.192;5.396;2023-08-30T01:09:09;7.90;;;5.10;;
74124;SDS011;62475;52.192;5.396;2023-08-30T01:14:20;8.60;;;4.70;;
74124;SDS011;62475;52.192;5.396;2023-08-30T01:16:46;7.00;;;4.43;;
74124;SDS011;62475;52.192;5.396;2023-08-30T01:24:28;6.70;;;4.25;;
74124;SDS011;62475;52.192;5.396;2023-08-30T01:29:31;6.32;;;4.22;;
74124;SDS011;62475;52.192;5.396;2023-08-30T01:31:57;7.07;;;4.43;;
74124;SDS011;62475;52.192;5.396;2023-08-30T01:34:22;6.47;;;4.93;;
74124;SDS011;62475;52.192;5.396;2023-08-30T01:36:48;6.57;;;4.75;;
74124;SDS011;62475;52.192;5.396;2023-08-30T01:39:14;7.18;;;4.75;;
74124;SDS011;62475;52.192;5.396;2023-08-30T01:41:40;6.22;;;4.47;;
74124;SDS011;62475;52.192;5.396;2023-08-30T01:44:06;6.57;;;4.40;;
74124;SDS011;62475;52.192;5.396;2023-08-30T01:46:33;6.75;;;4.43;;
74124;SDS011;62475;52.192;5.396;2023-08-30T01:48:58;8.63;;;4.78;;
74124;SDS011;62475;52.192;5.396;2023-08-30T01:51:24;7.72;;;4.90;;
74124;SDS011;62475;52.192;5.396;2023-08-30T01:53:51;9.40;;;5.05;;
74124;SDS011;62475;52.192;5.396;2023-08-30T01:56:18;8.00;;;4.65;;
74124;SDS011;62475;52.192;5.396;2023-08-30T01:58:43;9.05;;;5.40;;
74124;SDS011;62475;52.192;5.396;2023-08-30T02:01:08;9.33;;;5.10;;
74124;SDS011;62475;52.192;5.396;2023-08-30T02:03:33;7.28;;;4.72;;
74124;SDS011;62475;52.192;5.396;2023-08-30T02:08:33;7.60;;;5.30;;
74124;SDS011;62475;52.192;5.396;2023-08-30T02:11:04;8.18;;;4.88;;
74124;SDS011;62475;52.192;5.396;2023-08-30T02:13:32;8.30;;;5.07;;
74124;SDS011;62475;52.192;5.396;2023-08-30T02:15:58;7.78;;;4.60;;
74124;SDS011;62475;52.192;5.396;2023-08-30T02:18:25;7.32;;;4.07;;
74124;SDS011;62475;52.192;5.396;2023-08-30T02:20:51;9.05;;;4.90;;
74124;SDS011;62475;52.192;5.396;2023-08-30T02:23:16;9.30;;;5.32;;
74124;SDS011;62475;52.192;5.396;2023-08-30T02:25:41;7.17;;;5.53;;
74124;SDS011;62475;52.192;5.396;2023-08-30T02:28:06;8.73;;;4.95;;
74124;SDS011;62475;52.192;5.396;2023-08-30T02:30:31;9.30;;;5.30;;
74124;SDS011;62475;52.192;5.396;2023-08-30T02:32:57;7.87;;;5.10;;
74124;SDS011;62475;52.192;5.396;2023-08-30T02:35:22;9.03;;;5.67;;
74124;SDS011;62475;52.192;5.396;2023-08-30T02:37:47;8.57;;;5.40;;
74124;SDS011;62475;52.192;5.396;2023-08-30T02:40:12;11.93;;;5.85;;
74124;SDS011;62475;52.192;5.396;2023-08-30T02:42:38;9.70;;;4.90;;
74124;SDS011;62475;52.192;5.396;2023-08-30T02:45:03;10.73;;;6.50;;
74124;SDS011;62475;52.192;5.396;2023-08-30T02:47:28;10.02;;;5.78;;
74124;SDS011;62475;52.192;5.396;2023-08-30T02:49:54;7.90;;;4.82;;
74124;SDS011;62475;52.192;5.396;2023-08-30T02:52:19;9.83;;;5.93;;
74124;SDS011;62475;52.192;5.396;2023-08-30T02:54:44;11.37;;;5.87;;
74124;SDS011;62475;52.192;5.396;2023-08-30T02:57:09;9.83;;;5.80;;
74124;SDS011;62475;52.192;5.396;2023-08-30T02:59:34;12.27;;;6.75;;
74124;SDS011;62475;52.192;5.396;2023-08-30T03:02:00;11.10;;;5.83;;
74124;SDS011;62475;52.192;5.396;2023-08-30T03:04:25;10.10;;;6.10;;
74124;SDS011;62475;52.192;5.396;2023-08-30T03:06:50;13.43;;;7.18;;
74124;SDS011;62475;52.192;5.396;2023-08-30T03:09:15;10.53;;;6.67;;
74124;SDS011;62475;52.192;5.396;2023-08-30T03:11:41;13.65;;;7.07;;
74124;SDS011;62475;52.192;5.396;2023-08-30T03:14:06;10.60;;;6.13;;
74124;SDS011;62475;52.192;5.396;2023-08-30T03:16:32;11.13;;;7.23;;
74124;SDS011;62475;52.192;5.396;2023-08-30T03:18:58;11.50;;;7.00;;
74124;SDS011;62475;52.192;5.396;2023-08-30T03:21:23;9.95;;;6.18;;
74124;SDS011;62475;52.192;5.396;2023-08-30T03:23:48;13.63;;;8.10;;
74124;SDS011;62475;52.192;5.396;2023-08-30T03:26:15;12.67;;;6.77;;
74124;SDS011;62475;52.192;5.396;2023-08-30T03:28:41;13.07;;;7.43;;
74124;SDS011;62475;52.192;5.396;2023-08-30T03:31:15;13.82;;;8.55;;
74124;SDS011;62475;52.192;5.396;2023-08-30T03:33:41;16.38;;;7.57;;
74124;SDS011;62475;52.192;5.396;2023-08-30T03:36:07;13.32;;;7.43;;
74124;SDS011;62475;52.192;5.396;2023-08-30T03:38:33;10.75;;;6.85;;
74124;SDS011;62475;52.192;5.396;2023-08-30T03:40:58;11.47;;;7.03;;
74124;SDS011;62475;52.192;5.396;2023-08-30T03:43:23;16.27;;;7.40;;
74124;SDS011;62475;52.192;5.396;2023-08-30T03:45:48;12.00;;;6.82;;
74124;SDS011;62475;52.192;5.396;2023-08-30T03:48:17;14.63;;;7.30;;
74124;SDS011;62475;52.192;5.396;2023-08-30T03:50:42;12.73;;;7.50;;
74124;SDS011;62475;52.192;5.396;2023-08-30T03:53:07;14.03;;;7.50;;
74124;SDS011;62475;52.192;5.396;2023-08-30T03:55:33;13.87;;;7.33;;
74124;SDS011;62475;52.192;5.396;2023-08-30T03:57:59;15.05;;;7.80;;
74124;SDS011;62475;52.192;5.396;2023-08-30T04:00:24;16.40;;;8.07;;
74124;SDS011;62475;52.192;5.396;2023-08-30T04:02:49;12.73;;;7.27;;
74124;SDS011;62475;52.192;5.396;2023-08-30T04:05:14;14.10;;;7.38;;
74124;SDS011;62475;52.192;5.396;2023-08-30T04:07:39;11.17;;;6.87;;
74124;SDS011;62475;52.192;5.396;2023-08-30T04:10:05;11.13;;;7.67;;
74124;SDS011;62475;52.192;5.396;2023-08-30T04:12:35;15.15;;;8.05;;
74124;SDS011;62475;52.192;5.396;2023-08-30T04:15:03;14.80;;;7.80;;
74124;SDS011;62475;52.192;5.396;2023-08-30T04:17:28;12.90;;;7.32;;
74124;SDS011;62475;52.192;5.396;2023-08-30T04:19:54;16.53;;;8.50;;
74124;SDS011;62475;52.192;5.396;2023-08-30T04:22:19;14.80;;;7.97;;
74124;SDS011;62475;52.192;5.396;2023-08-30T04:24:45;13.77;;;7.30;;
74124;SDS011;62475;52.192;5.396;2023-08-30T04:27:10;12.80;;;7.25;;
74124;SDS011;62475;52.192;5.396;2023-08-30T04:29:35;15.67;;;8.20;;
74124;SDS011;62475;52.192;5.396;2023-08-30T04:32:00;12.00;;;6.57;;
74124;SDS011;62475;52.192;5.396;2023-08-30T04:34:26;12.10;;;7.15;;
74124;SDS011;62475;52.192;5.396;2023-08-30T04:36:51;12.00;;;7.07;;
74124;SDS011;62475;52.192;5.396;2023-08-30T04:39:18;13.18;;;7.15;;
74124;SDS011;62475;52.192;5.396;2023-08-30T04:41:43;14.33;;;7.77;;
74124;SDS011;62475;52.192;5.396;2023-08-30T04:44:08;14.90;;;7.57;;
74124;SDS011;62475;52.192;5.396;2023-08-30T04:46:33;13.63;;;7.47;;
74124;SDS011;62475;52.192;5.396;2023-08-30T04:48:59;14.40;;;7.27;;
74124;SDS011;62475;52.192;5.396;2023-08-30T04:51:24;14.17;;;7.70;;
74124;SDS011;62475;52.192;5.396;2023-08-30T04:53:49;12.13;;;7.10;;
74124;SDS011;62475;52.192;5.396;2023-08-30T04:56:14;16.47;;;8.30;;
74124;SDS011;62475;52.192;5.396;2023-08-30T04:58:40;11.30;;;7.05;;
74124;SDS011;62475;52.192;5.396;2023-08-30T05:01:05;15.07;;;7.83;;
74124;SDS011;62475;52.192;5.396;2023-08-30T05:03:31;15.57;;;7.38;;
74124;SDS011;62475;52.192;5.396;2023-08-30T05:05:57;12.55;;;7.47;;
74124;SDS011;62475;52.192;5.396;2023-08-30T05:08:22;13.20;;;7.53;;
74124;SDS011;62475;52.192;5.396;2023-08-30T05:10:47;13.30;;;7.73;;
74124;SDS011;62475;52.192;5.396;2023-08-30T05:13:15;11.55;;;6.65;;
74124;SDS011;62475;52.192;5.396;2023-08-30T05:15:40;14.10;;;7.35;;
74124;SDS011;62475;52.192;5.396;2023-08-30T05:18:07;11.67;;;6.77;;
74124;SDS011;62475;52.192;5.396;2023-08-30T05:20:32;11.55;;;6.95;;
74124;SDS011;62475;52.192;5.396;2023-08-30T05:22:57;12.47;;;6.97;;
74124;SDS011;62475;52.192;5.396;2023-08-30T05:25:22;14.27;;;7.50;;
74124;SDS011;62475;52.192;5.396;2023-08-30T05:27:48;11.95;;;6.47;;
74124;SDS011;62475;52.192;5.396;2023-08-30T05:30:13;12.48;;;7.07;;
74124;SDS011;62475;52.192;5.396;2023-08-30T05:32:38;12.98;;;6.97;;
74124;SDS011;62475;52.192;5.396;2023-08-30T05:35:04;14.27;;;7.83;;
74124;SDS011;62475;52.192;5.396;2023-08-30T05:37:29;13.93;;;8.27;;
74124;SDS011;62475;52.192;5.396;2023-08-30T05:39:54;13.43;;;7.53;;
74124;SDS011;62475;52.192;5.396;2023-08-30T05:42:19;15.93;;;7.97;;
74124;SDS011;62475;52.192;5.396;2023-08-30T05:44:47;16.15;;;9.07;;
74124;SDS011;62475;52.192;5.396;2023-08-30T05:47:13;14.52;;;7.63;;
74124;SDS011;62475;52.192;5.396;2023-08-30T05:49:40;17.95;;;8.35;;
74124;SDS011;62475;52.192;5.396;2023-08-30T05:52:05;12.48;;;7.80;;
74124;SDS011;62475;52.192;5.396;2023-08-30T05:54:31;14.10;;;6.97;;
74124;SDS011;62475;52.192;5.396;2023-08-30T05:56:57;17.40;;;8.45;;
74124;SDS011;62475;52.192;5.396;2023-08-30T05:59:23;14.77;;;8.00;;
74124;SDS011;62475;52.192;5.396;2023-08-30T06:01:48;17.30;;;9.30;;
74124;SDS011;62475;52.192;5.396;2023-08-30T06:04:13;14.37;;;7.73;;
74124;SDS011;62475;52.192;5.396;2023-08-30T06:06:38;14.00;;;7.87;;
74124;SDS011;62475;52.192;5.396;2023-08-30T06:09:03;15.27;;;7.57;;
74124;SDS011;62475;52.192;5.396;2023-08-30T06:11:29;12.87;;;7.10;;
74124;SDS011;62475;52.192;5.396;2023-08-30T06:13:54;13.83;;;8.00;;
74124;SDS011;62475;52.192;5.396;2023-08-30T06:16:19;14.95;;;8.05;;
74124;SDS011;62475;52.192;5.396;2023-08-30T06:18:45;14.57;;;7.63;;
74124;SDS011;62475;52.192;5.396;2023-08-30T06:21:10;12.43;;;6.93;;
74124;SDS011;62475;52.192;5.396;2023-08-30T06:23:37;13.93;;;7.45;;
74124;SDS011;62475;52.192;5.396;2023-08-30T06:26:02;11.75;;;6.70;;
74124;SDS011;62475;52.192;5.396;2023-08-30T06:28:28;12.30;;;6.45;;
74124;SDS011;62475;52.192;5.396;2023-08-30T06:30:53;12.18;;;7.35;;
74124;SDS011;62475;52.192;5.396;2023-08-30T06:33:18;16.30;;;8.53;;
74124;SDS011;62475;52.192;5.396;2023-08-30T06:35:43;16.75;;;8.57;;
74124;SDS011;62475;52.192;5.396;2023-08-30T06:38:09;17.27;;;8.77;;
74124;SDS011;62475;52.192;5.396;2023-08-30T06:40:35;16.23;;;9.17;;
74124;SDS011;62475;52.192;5.396;2023-08-30T06:43:02;18.80;;;9.55;;
74124;SDS011;62475;52.192;5.396;2023-08-30T06:45:28;16.08;;;8.85;;
74124;SDS011;62475;52.192;5.396;2023-08-30T06:47:53;21.00;;;10.00;;
74124;SDS011;62475;52.192;5.396;2023-08-30T06:50:18;18.40;;;9.40;;
74124;SDS011;62475;52.192;5.396;2023-08-30T06:52:44;21.87;;;10.37;;
74124;SDS011;62475;52.192;5.396;2023-08-30T06:55:09;21.73;;;10.45;;
74124;SDS011;62475;52.192;5.396;2023-08-30T06:57:35;24.27;;;10.20;;
74124;SDS011;62475;52.192;5.396;2023-08-30T07:00:00;18.43;;;10.80;;
74124;SDS011;62475;52.192;5.396;2023-08-30T07:02:32;22.23;;;11.13;;
74124;SDS011;62475;52.192;5.396;2023-08-30T07:04:57;21.53;;;11.47;;
74124;SDS011;62475;52.192;5.396;2023-08-30T07:07:22;22.43;;;11.37;;
74124;SDS011;62475;52.192;5.396;2023-08-30T07:09:48;21.43;;;10.90;;
74124;SDS011;62475;52.192;5.396;2023-08-30T07:12:13;22.88;;;10.95;;
74124;SDS011;62475;52.192;5.396;2023-08-30T07:14:38;20.33;;;10.93;;
74124;SDS011;62475;52.192;5.396;2023-08-30T07:17:03;21.80;;;10.50;;
74124;SDS011;62475;52.192;5.396;2023-08-30T07:19:28;21.30;;;11.97;;
74124;SDS011;62475;52.192;5.396;2023-08-30T07:21:54;23.50;;;12.23;;
74124;SDS011;62475;52.192;5.396;2023-08-30T07:24:19;26.30;;;12.30;;
74124;SDS011;62475;52.192;5.396;2023-08-30T07:26:44;25.90;;;11.73;;
74124;SDS011;62475;52.192;5.396;2023-08-30T07:29:09;22.47;;;12.47;;
74124;SDS011;62475;52.192;5.396;2023-08-30T07:31:35;24.90;;;12.40;;
74124;SDS011;62475;52.192;5.396;2023-08-30T07:34:00;20.93;;;12.60;;
74124;SDS011;62475;52.192;5.396;2023-08-30T07:36:29;28.15;;;13.15;;
74124;SDS011;62475;52.192;5.396;2023-08-30T07:38:54;27.00;;;12.55;;
74124;SDS011;62475;52.192;5.396;2023-08-30T07:41:20;24.27;;;12.47;;
74124;SDS011;62475;52.192;5.396;2023-08-30T07:43:45;21.73;;;11.67;;
74124;SDS011;62475;52.192;5.396;2023-08-30T07:46:10;22.33;;;11.83;;
74124;SDS011;62475;52.192;5.396;2023-08-30T07:48:35;18.73;;;10.43;;
74124;SDS011;62475;52.192;5.396;2023-08-30T07:51:01;25.00;;;11.80;;
74124;SDS011;62475;52.192;5.396;2023-08-30T07:53:26;22.60;;;11.30;;
74124;SDS011;62475;52.192;5.396;2023-08-30T07:55:51;24.47;;;12.20;;
74124;SDS011;62475;52.192;5.396;2023-08-30T07:58:17;22.23;;;11.93;;
74124;SDS011;62475;52.192;5.396;2023-08-30T08:00:42;22.00;;;11.55;;
74124;SDS011;62475;52.192;5.396;2023-08-30T08:03:07;22.20;;;11.63;;
74124;SDS011;62475;52.192;5.396;2023-08-30T08:05:32;22.67;;;10.80;;
74124;SDS011;62475;52.192;5.396;2023-08-30T08:07:59;21.37;;;10.47;;
74124;SDS011;62475;52.192;5.396;2023-08-30T08:10:24;22.05;;;10.68;;
74124;SDS011;62475;52.192;5.396;2023-08-30T08:12:49;23.97;;;11.50;;
74124;SDS011;62475;52.192;5.396;2023-08-30T08:15:15;21.10;;;11.23;;
74124;SDS011;62475;52.192;5.396;2023-08-30T08:17:40;23.93;;;11.10;;
74124;SDS011;62475;52.192;5.396;2023-08-30T08:20:08;20.65;;;10.80;;
74124;SDS011;62475;52.192;5.396;2023-08-30T08:22:33;19.23;;;10.98;;
74124;SDS011;62475;52.192;5.396;2023-08-30T08:24:58;21.47;;;10.97;;
74124;SDS011;62475;52.192;5.396;2023-08-30T08:27:26;21.60;;;10.57;;
74124;SDS011;62475;52.192;5.396;2023-08-30T08:29:52;16.35;;;9.43;;
74124;SDS011;62475;52.192;5.396;2023-08-30T08:32:17;18.67;;;10.07;;
74124;SDS011;62475;52.192;5.396;2023-08-30T08:34:42;19.30;;;9.80;;
74124;SDS011;62475;52.192;5.396;2023-08-30T08:37:07;18.90;;;9.70;;
74124;SDS011;62475;52.192;5.396;2023-08-30T08:39:36;18.70;;;9.32;;
74124;SDS011;62475;52.192;5.396;2023-08-30T08:42:02;15.40;;;8.23;;
74124;SDS011;62475;52.192;5.396;2023-08-30T08:44:31;16.20;;;8.63;;
74124;SDS011;62475;52.192;5.396;2023-08-30T08:46:56;15.82;;;7.90;;
74124;SDS011;62475;52.192;5.396;2023-08-30T08:49:22;18.67;;;8.95;;
74124;SDS011;62475;52.192;5.396;2023-08-30T08:51:48;16.67;;;8.82;;
74124;SDS011;62475;52.192;5.396;2023-08-30T08:54:13;16.63;;;8.88;;
74124;SDS011;62475;52.192;5.396;2023-08-30T08:56:39;15.20;;;9.60;;
74124;SDS011;62475;52.192;5.396;2023-08-30T08:59:04;17.92;;;8.32;;
74124;SDS011;62475;52.192;5.396;2023-08-30T09:01:31;15.85;;;9.10;;
74124;SDS011;62475;52.192;5.396;2023-08-30T09:03:59;18.30;;;8.43;;
74124;SDS011;62475;52.192;5.396;2023-08-30T09:06:24;18.55;;;9.57;;
74124;SDS011;62475;52.192;5.396;2023-08-30T09:08:49;15.13;;;7.57;;
74124;SDS011;62475;52.192;5.396;2023-08-30T09:11:15;17.57;;;9.97;;
74124;SDS011;62475;52.192;5.396;2023-08-30T09:13:41;17.88;;;9.07;;
74124;SDS011;62475;52.192;5.396;2023-08-30T09:16:13;16.77;;;9.18;;
74124;SDS011;62475;52.192;5.396;2023-08-30T09:18:39;15.00;;;8.90;;
74124;SDS011;62475;52.192;5.396;2023-08-30T09:21:08;15.93;;;9.05;;
74124;SDS011;62475;52.192;5.396;2023-08-30T09:23:33;15.75;;;8.43;;
74124;SDS011;62475;52.192;5.396;2023-08-30T09:26:01;15.10;;;8.13;;
74124;SDS011;62475;52.192;5.396;2023-08-30T09:28:27;13.23;;;8.23;;
74124;SDS011;62475;52.192;5.396;2023-08-30T09:30:52;14.70;;;8.60;;
74124;SDS011;62475;52.192;5.396;2023-08-30T09:33:36;18.60;;;8.98;;
74124;SDS011;62475;52.192;5.396;2023-08-30T09:36:01;15.98;;;8.45;;
74124;SDS011;62475;52.192;5.396;2023-08-30T09:38:26;13.63;;;8.52;;
74124;SDS011;62475;52.192;5.396;2023-08-30T09:41:04;17.53;;;9.03;;
74124;SDS011;62475;52.192;5.396;2023-08-30T09:43:29;13.32;;;8.15;;
74124;SDS011;62475;52.192;5.396;2023-08-30T09:45:55;14.23;;;8.02;;
74124;SDS011;62475;52.192;5.396;2023-08-30T09:48:20;17.17;;;8.20;;
74124;SDS011;62475;52.192;5.396;2023-08-30T09:50:47;15.75;;;8.30;;
74124;SDS011;62475;52.192;5.396;2023-08-30T09:53:14;16.48;;;9.65;;
74124;SDS011;62475;52.192;5.396;2023-08-30T09:55:42;15.60;;;9.07;;
74124;SDS011;62475;52.192;5.396;2023-08-30T09:58:07;16.25;;;9.70;;
74124;SDS011;62475;52.192;5.396;2023-08-30T10:00:33;19.90;;;10.70;;
74124;SDS011;62475;52.192;5.396;2023-08-30T10:02:59;18.27;;;10.47;;
74124;SDS011;62475;52.192;5.396;2023-08-30T10:05:24;20.40;;;10.60;;
74124;SDS011;62475;52.192;5.396;2023-08-30T10:07:50;22.45;;;11.02;;
74124;SDS011;62475;52.192;5.396;2023-08-30T10:10:17;19.98;;;10.93;;
74124;SDS011;62475;52.192;5.396;2023-08-30T10:12:42;19.43;;;9.83;;
74124;SDS011;62475;52.192;5.396;2023-08-30T10:15:10;18.48;;;10.15;;
74124;SDS011;62475;52.192;5.396;2023-08-30T10:17:36;22.60;;;12.40;;
74124;SDS011;62475;52.192;5.396;2023-08-30T10:20:06;23.10;;;12.63;;
74124;SDS011;62475;52.192;5.396;2023-08-30T10:22:32;18.83;;;11.63;;
74124;SDS011;62475;52.192;5.396;2023-08-30T10:24:59;19.33;;;12.27;;
74124;SDS011;62475;52.192;5.396;2023-08-30T10:27:26;21.52;;;12.32;;
74124;SDS011;62475;52.192;5.396;2023-08-30T10:29:51;22.15;;;13.25;;
74124;SDS011;62475;52.192;5.396;2023-08-30T10:32:20;19.30;;;12.30;;
74124;SDS011;62475;52.192;5.396;2023-08-30T10:34:47;19.33;;;13.18;;
74124;SDS011;62475;52.192;5.396;2023-08-30T10:37:13;18.05;;;12.23;;
74124;SDS011;62475;52.192;5.396;2023-08-30T10:39:39;13.38;;;10.57;;
74124;SDS011;62475;52.192;5.396;2023-08-30T10:42:08;15.52;;;10.20;;
74124;SDS011;62475;52.192;5.396;2023-08-30T10:44:34;13.20;;;9.75;;
74124;SDS011;62475;52.192;5.396;2023-08-30T10:46:59;14.30;;;8.40;;
74124;SDS011;62475;52.192;5.396;2023-08-30T10:49:26;11.50;;;8.82;;
74124;SDS011;62475;52.192;5.396;2023-08-30T10:51:57;8.40;;;6.50;;
74124;SDS011;62475;52.192;5.396;2023-08-30T10:54:23;8.65;;;3.90;;
74124;SDS011;62475;52.192;5.396;2023-08-30T10:56:55;9.55;;;4.38;;
74124;SDS011;62475;52.192;5.396;2023-08-30T10:59:22;9.98;;;4.07;;
74124;SDS011;62475;52.192;5.396;2023-08-30T11:01:49;7.07;;;3.33;;
74124;SDS011;62475;52.192;5.396;2023-08-30T11:04:14;6.05;;;3.78;;
74124;SDS011;62475;52.192;5.396;2023-08-30T11:06:42;8.30;;;3.63;;
74124;SDS011;62475;52.192;5.396;2023-08-30T11:09:07;4.20;;;2.75;;
74124;SDS011;62475;52.192;5.396;2023-08-30T11:11:33;8.02;;;2.75;;
74124;SDS011;62475;52.192;5.396;2023-08-30T11:14:07;5.60;;;2.40;;
74124;SDS011;62475;52.192;5.396;2023-08-30T11:18:59;6.10;;;2.58;;
74124;SDS011;62475;52.192;5.396;2023-08-30T11:21:25;6.50;;;2.42;;
74124;SDS011;62475;52.192;5.396;2023-08-30T11:23:51;4.67;;;1.70;;
74124;SDS011;62475;52.192;5.396;2023-08-30T11:26:17;6.05;;;1.63;;
74124;SDS011;62475;52.192;5.396;2023-08-30T11:28:42;3.90;;;2.05;;
74124;SDS011;62475;52.192;5.396;2023-08-30T11:31:17;5.20;;;2.30;;
74124;SDS011;62475;52.192;5.396;2023-08-30T11:33:49;4.68;;;3.00;;
74124;SDS011;62475;52.192;5.396;2023-08-30T11:36:14;4.95;;;2.45;;
74124;SDS011;62475;52.192;5.396;2023-08-30T11:38:39;5.57;;;2.50;;
74124;SDS011;62475;52.192;5.396;2023-08-30T11:41:05;6.25;;;2.53;;
74124;SDS011;62475;52.192;5.396;2023-08-30T11:43:31;5.10;;;2.05;;
74124;SDS011;62475;52.192;5.396;2023-08-30T11:45:56;8.50;;;2.93;;
74124;SDS011;62475;52.192;5.396;2023-08-30T11:48:22;4.88;;;2.00;;
74124;SDS011;62475;52.192;5.396;2023-08-30T11:50:47;5.97;;;2.00;;
74124;SDS011;62475;52.192;5.396;2023-08-30T11:53:12;3.00;;;1.75;;
74124;SDS011;62475;52.192;5.396;2023-08-30T11:55:38;7.07;;;2.85;;
74124;SDS011;62475;52.192;5.396;2023-08-30T11:58:03;5.88;;;1.92;;
74124;SDS011;62475;52.192;5.396;2023-08-30T12:00:29;5.93;;;1.80;;
74124;SDS011;62475;52.192;5.396;2023-08-30T12:02:57;8.40;;;2.53;;
74124;SDS011;62475;52.192;5.396;2023-08-30T12:05:22;10.00;;;1.97;;
74124;SDS011;62475;52.192;5.396;2023-08-30T12:07:48;8.03;;;2.30;;
74124;SDS011;62475;52.192;5.396;2023-08-30T12:10:13;4.07;;;2.00;;
74124;SDS011;62475;52.192;5.396;2023-08-30T12:12:43;5.33;;;2.07;;
74124;SDS011;62475;52.192;5.396;2023-08-30T12:15:09;4.88;;;1.52;;
74124;SDS011;62475;52.192;5.396;2023-08-30T12:17:35;4.35;;;1.50;;
74124;SDS011;62475;52.192;5.396;2023-08-30T12:20:00;7.82;;;1.80;;
74124;SDS011;62475;52.192;5.396;2023-08-30T12:22:38;4.03;;;1.60;;
74124;SDS011;62475;52.192;5.396;2023-08-30T12:25:03;4.93;;;1.98;;
74124;SDS011;62475;52.192;5.396;2023-08-30T12:27:29;5.15;;;1.88;;
74124;SDS011;62475;52.192;5.396;2023-08-30T12:29:54;7.72;;;1.70;;
74124;SDS011;62475;52.192;5.396;2023-08-30T12:32:19;6.40;;;1.90;;
74124;SDS011;62475;52.192;5.396;2023-08-30T12:34:45;6.35;;;1.70;;
74124;SDS011;62475;52.192;5.396;2023-08-30T12:37:10;4.33;;;1.50;;
74124;SDS011;62475;52.192;5.396;2023-08-30T12:39:35;8.73;;;2.13;;
74124;SDS011;62475;52.192;5.396;2023-08-30T12:42:00;4.43;;;1.23;;
74124;SDS011;62475;52.192;5.396;2023-08-30T12:44:25;8.07;;;1.50;;
74124;SDS011;62475;52.192;5.396;2023-08-30T12:46:51;4.57;;;1.27;;
74124;SDS011;62475;52.192;5.396;2023-08-30T12:49:16;4.70;;;1.40;;
74124;SDS011;62475;52.192;5.396;2023-08-30T12:51:41;7.10;;;1.60;;
74124;SDS011;62475;52.192;5.396;2023-08-30T12:54:06;3.00;;;1.17;;
74124;SDS011;62475;52.192;5.396;2023-08-30T12:56:31;8.25;;;1.40;;
74124;SDS011;62475;52.192;5.396;2023-08-30T12:58:57;3.47;;;1.37;;
74124;SDS011;62475;52.192;5.396;2023-08-30T13:01:22;4.33;;;1.33;;
74124;SDS011;62475;52.192;5.396;2023-08-30T13:03:49;4.47;;;1.40;;
74124;SDS011;62475;52.192;5.396;2023-08-30T13:06:14;4.80;;;1.50;;
74124;SDS011;62475;52.192;5.396;2023-08-30T13:08:39;5.70;;;1.60;;
74124;SDS011;62475;52.192;5.396;2023-08-30T13:11:05;6.00;;;1.50;;
74124;SDS011;62475;52.192;5.396;2023-08-30T13:13:30;3.37;;;1.17;;
74124;SDS011;62475;52.192;5.396;2023-08-30T13:15:58;5.13;;;1.50;;
74124;SDS011;62475;52.192;5.396;2023-08-30T13:18:24;5.13;;;1.58;;
74124;SDS011;62475;52.192;5.396;2023-08-30T13:20:49;8.50;;;1.80;;
74124;SDS011;62475;52.192;5.396;2023-08-30T13:23:14;7.20;;;1.42;;
74124;SDS011;62475;52.192;5.396;2023-08-30T13:25:40;5.43;;;1.30;;
74124;SDS011;62475;52.192;5.396;2023-08-30T13:28:05;7.32;;;1.90;;
74124;SDS011;62475;52.192;5.396;2023-08-30T13:30:30;7.77;;;1.60;;
74124;SDS011;62475;52.192;5.396;2023-08-30T13:32:55;4.73;;;1.57;;
74124;SDS011;62475;52.192;5.396;2023-08-30T13:35:21;5.77;;;1.00;;
74124;SDS011;62475;52.192;5.396;2023-08-30T13:37:46;6.87;;;1.60;;
74124;SDS011;62475;52.192;5.396;2023-08-30T13:40:11;8.17;;;1.50;;
74124;SDS011;62475;52.192;5.396;2023-08-30T13:42:36;2.50;;;1.13;;
74124;SDS011;62475;52.192;5.396;2023-08-30T13:45:01;3.53;;;1.37;;
74124;SDS011;62475;52.192;5.396;2023-08-30T13:47:27;6.75;;;1.30;;
74124;SDS011;62475;52.192;5.396;2023-08-30T13:49:53;5.03;;;1.27;;
74124;SDS011;62475;52.192;5.396;2023-08-30T13:52:18;7.27;;;1.37;;
74124;SDS011;62475;52.192;5.396;2023-08-30T13:54:43;5.03;;;1.73;;
74124;SDS011;62475;52.192;5.396;2023-08-30T13:57:08;3.90;;;1.30;;
74124;SDS011;62475;52.192;5.396;2023-08-30T13:59:34;5.67;;;1.00;;
74124;SDS011;62475;52.192;5.396;2023-08-30T14:02:00;4.30;;;1.33;;
74124;SDS011;62475;52.192;5.396;2023-08-30T14:04:26;3.97;;;1.10;;
74124;SDS011;62475;52.192;5.396;2023-08-30T14:06:51;2.47;;;1.20;;
74124;SDS011;62475;52.192;5.396;2023-08-30T14:09:16;4.70;;;1.40;;
74124;SDS011;62475;52.192;5.396;2023-08-30T14:11:41;3.87;;;1.10;;
74124;SDS011;62475;52.192;5.396;2023-08-30T14:14:06;6.17;;;1.00;;
74124;SDS011;62475;52.192;5.396;2023-08-30T14:16:32;4.47;;;1.10;;
74124;SDS011;62475;52.192;5.396;2023-08-30T14:18:57;2.97;;;1.40;;
74124;SDS011;62475;52.192;5.396;2023-08-30T14:21:25;5.20;;;1.20;;
74124;SDS011;62475;52.192;5.396;2023-08-30T14:23:50;4.05;;;1.38;;
74124;SDS011;62475;52.192;5.396;2023-08-30T14:26:15;4.33;;;1.37;;
74124;SDS011;62475;52.192;5.396;2023-08-30T14:28:40;6.30;;;1.47;;
74124;SDS011;62475;52.192;5.396;2023-08-30T14:31:09;3.60;;;1.20;;
74124;SDS011;62475;52.192;5.396;2023-08-30T14:33:35;1.70;;;0.90;;
74124;SDS011;62475;52.192;5.396;2023-08-30T14:36:00;4.03;;;1.60;;
74124;SDS011;62475;52.192;5.396;2023-08-30T14:38:27;4.70;;;1.17;;
74124;SDS011;62475;52.192;5.396;2023-08-30T14:43:20;2.55;;;1.15;;
74124;SDS011;62475;52.192;5.396;2023-08-30T14:45:46;3.33;;;1.23;;
74124;SDS011;62475;52.192;5.396;2023-08-30T14:48:11;3.33;;;1.00;;